Time,TemperatureF,DewpointF,PressureIn,WindDirection,WindDirectionDegrees,WindSpeedMPH,WindSpeedGustMPH,Humidity,HourlyPrecipIn,Conditions,Clouds,dailyrainin,SoftwareType,DateUTC
2013-09-01 00:01:00,73.7,71.2,29.82,SE,146,1.0,1.0,92,0.00,,,0.01,Wunderground v.1.15,2013-09-01 04:01:00,
2013-09-01 00:02:00,73.7,71.2,29.82,SSE,160,1.0,1.0,92,0.00,,,0.00,Wunderground v.1.15,2013-09-01 04:02:00,
2013-09-01 00:03:00,73.7,71.2,29.82,SSE,166,4.0,4.0,92,0.00,,,0.00,Wunderground v.1.15,2013-09-01 04:03:00,
2013-09-01 00:05:00,73.7,71.2,29.82,SE,132,0.0,4.0,92,0.00,,,0.00,Wunderground v.1.15,2013-09-01 04:05:00,
2013-09-01 00:11:00,73.8,71.3,29.83,SSE,165,1.0,1.0,92,0.00,,,0.00,Wunderground v.1.15,2013-09-01 04:11:00,
2013-09-01 00:13:00,73.8,71.3,29.83,SW,226,2.0,2.0,92,0.00,,,0.00,Wunderground v.1.15,2013-09-01 04:13:00,
2013-09-01 00:18:00,73.9,71.4,29.83,SW,228,2.0,2.0,92,0.00,,,0.00,Wunderground v.1.15,2013-09-01 04:18:00,
2013-09-01 00:24:00,74.0,71.5,29.83,SSW,195,1.0,2.0,92,0.00,,,0.00,Wunderground v.1.15,2013-09-01 04:24:00,
2013-09-01 00:29:00,74.0,71.5,29.83,SW,222,2.0,2.0,92,0.00,,,0.00,Wunderground v.1.15,2013-09-01 04:29:00,
2013-09-01 00:34:00,73.9,71.4,29.83,West,263,0.0,1.0,92,0.00,,,0.00,Wunderground v.1.15,2013-09-01 04:34:00,
2013-09-01 00:40:00,73.9,71.4,29.82,South,169,0.0,1.0,92,0.00,,,0.00,Wunderground v.1.15,2013-09-01 04:40:00,
2013-09-01 00:46:00,73.8,71.6,29.82,South,170,1.0,1.0,93,0.00,,,0.00,Wunderground v.1.15,2013-09-01 04:46:00,
2013-09-01 00:51:00,73.7,71.5,29.82,South,169,3.0,3.0,93,0.00,,,0.00,Wunderground v.1.15,2013-09-01 04:51:00,
2013-09-01 00:57:00,73.7,71.5,29.81,SSW,200,0.0,3.0,93,0.00,,,0.00,Wunderground v.1.15,2013-09-01 04:57:00,
2013-09-01 01:03:00,73.7,71.9,29.81,SSE,154,0.0,1.0,94,0.00,,,0.00,Wunderground v.1.15,2013-09-01 05:03:00,
2013-09-01 01:09:00,73.7,71.9,29.82,South,171,0.0,2.0,94,0.00,,,0.00,Wunderground v.1.15,2013-09-01 05:09:00,
2013-09-01 01:14:00,73.7,71.9,29.81,SSE,151,0.0,0.0,94,0.00,,,0.00,Wunderground v.1.15,2013-09-01 05:14:00,
2013-09-01 01:20:00,73.7,71.9,29.82,South,171,0.0,0.0,94,0.00,,,0.00,Wunderground v.1.15,2013-09-01 05:20:00,
2013-09-01 01:26:00,73.7,71.9,29.82,SSE,151,1.0,1.0,94,0.00,,,0.00,Wunderground v.1.15,2013-09-01 05:26:00,
2013-09-01 01:31:00,73.7,71.9,29.82,SSE,159,1.0,1.0,94,0.00,,,0.00,Wunderground v.1.15,2013-09-01 05:31:00,
2013-09-01 01:37:00,73.6,71.8,29.82,SSE,158,1.0,1.0,94,0.00,,,0.00,Wunderground v.1.15,2013-09-01 05:37:00,
2013-09-01 01:43:00,73.5,71.7,29.81,SE,145,1.0,1.0,94,0.00,,,0.00,Wunderground v.1.15,2013-09-01 05:43:00,
2013-09-01 01:48:00,73.3,71.5,29.81,SSE,155,0.0,1.0,94,0.00,,,0.00,Wunderground v.1.15,2013-09-01 05:48:00,
2013-09-01 01:54:00,73.2,71.4,29.81,WNW,293,0.0,1.0,94,0.00,,,0.00,Wunderground v.1.15,2013-09-01 05:54:00,
2013-09-01 01:59:00,73.1,71.6,29.81,SSE,157,2.0,2.0,95,0.00,,,0.00,Wunderground v.1.15,2013-09-01 05:59:00,
2013-09-01 02:04:00,73.1,71.6,29.81,SSE,153,0.0,2.0,95,0.00,,,0.00,Wunderground v.1.15,2013-09-01 06:04:00,
2013-09-01 02:09:00,73.2,71.7,29.81,SSE,162,1.0,3.0,95,0.00,,,0.00,Wunderground v.1.15,2013-09-01 06:09:00,
2013-09-01 02:14:00,73.2,71.4,29.81,SSE,152,0.0,2.0,94,0.00,,,0.00,Wunderground v.1.15,2013-09-01 06:14:00,
2013-09-01 02:19:00,73.2,71.4,29.81,SSE,151,0.0,2.0,94,0.00,,,0.00,Wunderground v.1.15,2013-09-01 06:19:00,
2013-09-01 02:24:00,73.2,71.4,29.80,SSE,150,1.0,2.0,94,0.00,,,0.00,Wunderground v.1.15,2013-09-01 06:24:00,
2013-09-01 02:29:00,73.1,71.3,29.80,SSE,158,0.0,2.0,94,0.00,,,0.00,Wunderground v.1.15,2013-09-01 06:29:00,
2013-09-01 02:34:00,73.1,71.3,29.80,SSE,160,0.0,2.0,94,0.00,,,0.00,Wunderground v.1.15,2013-09-01 06:34:00,
2013-09-01 02:39:00,73.0,71.5,29.80,SSE,156,0.0,2.0,95,0.00,,,0.00,Wunderground v.1.15,2013-09-01 06:39:00,
2013-09-01 02:44:00,73.0,71.5,29.80,SSE,156,1.0,1.0,95,0.00,,,0.00,Wunderground v.1.15,2013-09-01 06:44:00,
2013-09-01 02:49:00,72.9,71.4,29.80,SE,130,1.0,2.0,95,0.00,,,0.00,Wunderground v.1.15,2013-09-01 06:49:00,
2013-09-01 02:54:00,72.9,71.4,29.80,SE,131,0.0,1.0,95,0.00,,,0.00,Wunderground v.1.15,2013-09-01 06:54:00,
2013-09-01 02:59:00,72.9,71.4,29.80,SSE,155,0.0,2.0,95,0.00,,,0.00,Wunderground v.1.15,2013-09-01 06:59:00,
2013-09-01 03:04:00,73.0,71.5,29.80,SSE,164,1.0,2.0,95,0.00,,,0.00,Wunderground v.1.15,2013-09-01 07:04:00,
2013-09-01 03:09:00,73.1,71.6,29.80,SSE,148,1.0,2.0,95,0.00,,,0.00,Wunderground v.1.15,2013-09-01 07:09:00,
2013-09-01 03:14:00,73.2,71.7,29.80,SSE,156,1.0,2.0,95,0.00,,,0.00,Wunderground v.1.15,2013-09-01 07:14:00,
2013-09-01 03:19:00,73.2,71.7,29.80,South,171,0.0,3.0,95,0.00,,,0.00,Wunderground v.1.15,2013-09-01 07:19:00,
2013-09-01 03:24:00,73.2,71.7,29.80,SSE,160,1.0,3.0,95,0.00,,,0.00,Wunderground v.1.15,2013-09-01 07:24:00,
2013-09-01 03:29:00,73.2,71.7,29.80,SSE,160,0.0,3.0,95,0.00,,,0.00,Wunderground v.1.15,2013-09-01 07:29:00,
2013-09-01 03:34:00,73.2,71.7,29.80,SSE,161,0.0,0.0,95,0.00,,,0.00,Wunderground v.1.15,2013-09-01 07:34:00,
2013-09-01 03:39:00,73.2,71.7,29.80,SSE,159,0.0,1.0,95,0.00,,,0.00,Wunderground v.1.15,2013-09-01 07:39:00,
2013-09-01 03:44:00,73.2,71.7,29.80,SSE,159,0.0,1.0,95,0.00,,,0.00,Wunderground v.1.15,2013-09-01 07:44:00,
2013-09-01 03:49:00,73.2,71.7,29.80,SSE,157,0.0,1.0,95,0.00,,,0.00,Wunderground v.1.15,2013-09-01 07:49:00,
2013-09-01 03:54:00,73.1,71.6,29.80,South,187,0.0,2.0,95,0.00,,,0.00,Wunderground v.1.15,2013-09-01 07:54:00,
2013-09-01 03:59:00,73.0,71.5,29.80,SSE,149,1.0,2.0,95,0.00,,,0.00,Wunderground v.1.15,2013-09-01 07:59:00,
2013-09-01 04:04:00,72.9,71.4,29.80,SSE,149,0.0,1.0,95,0.00,,,0.00,Wunderground v.1.15,2013-09-01 08:04:00,
2013-09-01 04:09:00,72.8,71.3,29.80,South,186,0.0,1.0,95,0.00,,,0.00,Wunderground v.1.15,2013-09-01 08:09:00,
2013-09-01 04:14:00,72.7,71.2,29.80,SSE,155,1.0,2.0,95,0.00,,,0.00,Wunderground v.1.15,2013-09-01 08:14:00,
2013-09-01 04:19:00,72.6,71.1,29.79,West,266,0.0,2.0,95,0.00,,,0.00,Wunderground v.1.15,2013-09-01 08:19:00,
2013-09-01 04:24:00,72.6,71.1,29.80,SSE,155,0.0,2.0,95,0.00,,,0.00,Wunderground v.1.15,2013-09-01 08:24:00,
2013-09-01 04:29:00,72.5,71.0,29.79,South,176,0.0,2.0,95,0.00,,,0.00,Wunderground v.1.15,2013-09-01 08:29:00,
2013-09-01 04:34:00,72.4,70.9,29.79,West,270,0.0,2.0,95,0.00,,,0.00,Wunderground v.1.15,2013-09-01 08:34:00,
2013-09-01 04:39:00,72.3,70.8,29.79,SSE,158,0.0,2.0,95,0.00,,,0.00,Wunderground v.1.15,2013-09-01 08:39:00,
2013-09-01 04:44:00,72.2,71.0,29.79,SSE,158,0.0,1.0,96,0.00,,,0.00,Wunderground v.1.15,2013-09-01 08:44:00,
2013-09-01 04:49:00,72.1,70.9,29.80,SSE,152,0.0,1.0,96,0.00,,,0.00,Wunderground v.1.15,2013-09-01 08:49:00,
2013-09-01 04:54:00,72.0,70.8,29.80,SSE,152,0.0,0.0,96,0.00,,,0.00,Wunderground v.1.15,2013-09-01 08:54:00,
2013-09-01 04:59:00,71.8,70.6,29.80,SSE,153,0.0,0.0,96,0.00,,,0.00,Wunderground v.1.15,2013-09-01 08:59:00,
2013-09-01 05:04:00,71.8,70.6,29.80,SSE,152,0.0,0.0,96,0.00,,,0.00,Wunderground v.1.15,2013-09-01 09:04:00,
2013-09-01 05:09:00,71.7,70.5,29.81,SE,141,0.0,2.0,96,0.00,,,0.00,Wunderground v.1.15,2013-09-01 09:09:00,
2013-09-01 05:14:00,71.7,70.5,29.81,SE,141,0.0,0.0,96,0.00,,,0.00,Wunderground v.1.15,2013-09-01 09:14:00,
2013-09-01 05:19:00,71.6,70.4,29.81,SE,143,0.0,1.0,96,0.00,,,0.00,Wunderground v.1.15,2013-09-01 09:19:00,
2013-09-01 05:24:00,71.7,70.8,29.81,SE,145,2.0,3.0,97,0.00,,,0.00,Wunderground v.1.15,2013-09-01 09:24:00,
2013-09-01 05:30:00,71.7,70.8,29.81,SE,146,2.0,2.0,97,0.00,,,0.00,Wunderground v.1.15,2013-09-01 09:30:00,
2013-09-01 05:35:00,71.8,70.9,29.81,SSW,205,1.0,2.0,97,0.00,,,0.00,Wunderground v.1.15,2013-09-01 09:35:00,
2013-09-01 05:40:00,71.7,70.8,29.81,SSE,159,0.0,1.0,97,0.00,,,0.00,Wunderground v.1.15,2013-09-01 09:40:00,
2013-09-01 05:45:00,71.7,70.8,29.81,SSE,163,0.0,1.0,97,0.00,,,0.00,Wunderground v.1.15,2013-09-01 09:45:00,
2013-09-01 05:50:00,71.6,70.7,29.81,SSE,162,0.0,0.0,97,0.00,,,0.00,Wunderground v.1.15,2013-09-01 09:50:00,
2013-09-01 05:55:00,71.5,70.6,29.81,SSE,162,0.0,2.0,97,0.00,,,0.00,Wunderground v.1.15,2013-09-01 09:55:00,
2013-09-01 06:00:00,71.5,70.6,29.81,South,173,0.0,0.0,97,0.00,,,0.00,Wunderground v.1.15,2013-09-01 10:00:00,
2013-09-01 06:05:00,71.5,70.6,29.81,South,173,0.0,0.0,97,0.00,,,0.00,Wunderground v.1.15,2013-09-01 10:05:00,
2013-09-01 06:10:00,71.5,70.6,29.82,SSE,156,1.0,1.0,97,0.00,,,0.00,Wunderground v.1.15,2013-09-01 10:10:00,
2013-09-01 06:15:00,71.6,70.7,29.82,SSE,165,1.0,2.0,97,0.00,,,0.00,Wunderground v.1.15,2013-09-01 10:15:00,
2013-09-01 06:20:00,71.6,70.7,29.82,SE,146,0.0,0.0,97,0.00,,,0.00,Wunderground v.1.15,2013-09-01 10:20:00,
2013-09-01 06:25:00,71.6,70.7,29.82,SSE,157,0.0,2.0,97,0.00,,,0.00,Wunderground v.1.15,2013-09-01 10:25:00,
2013-09-01 06:30:00,71.6,70.7,29.82,South,176,0.0,0.0,97,0.00,,,0.00,Wunderground v.1.15,2013-09-01 10:30:00,
2013-09-01 06:35:00,71.6,70.7,29.82,South,176,0.0,0.0,97,0.00,,,0.00,Wunderground v.1.15,2013-09-01 10:35:00,
2013-09-01 06:40:00,71.6,70.7,29.82,SSE,168,1.0,1.0,97,0.00,,,0.00,Wunderground v.1.15,2013-09-01 10:40:00,
2013-09-01 06:45:00,71.6,70.7,29.82,SSE,153,0.0,2.0,97,0.00,,,0.00,Wunderground v.1.15,2013-09-01 10:45:00,
2013-09-01 06:50:00,71.6,70.7,29.82,SE,142,0.0,0.0,97,0.00,,,0.00,Wunderground v.1.15,2013-09-01 10:50:00,
2013-09-01 06:55:00,71.6,70.7,29.82,South,183,0.0,3.0,97,0.00,,,0.00,Wunderground v.1.15,2013-09-01 10:55:00,
2013-09-01 07:00:00,71.6,70.7,29.82,South,183,0.0,0.0,97,0.00,,,0.00,Wunderground v.1.15,2013-09-01 11:00:00,
2013-09-01 07:05:00,71.6,70.7,29.82,South,184,0.0,1.0,97,0.00,,,0.00,Wunderground v.1.15,2013-09-01 11:05:00,
2013-09-01 07:10:00,71.6,70.7,29.83,South,170,0.0,0.0,97,0.00,,,0.00,Wunderground v.1.15,2013-09-01 11:10:00,
2013-09-01 07:15:00,71.7,71.1,29.83,South,171,0.0,1.0,98,0.00,,,0.00,Wunderground v.1.15,2013-09-01 11:15:00,
2013-09-01 07:20:00,71.8,71.2,29.83,South,171,1.0,1.0,98,0.00,,,0.00,Wunderground v.1.15,2013-09-01 11:20:00,
2013-09-01 07:25:00,72.0,71.4,29.83,South,170,0.0,1.0,98,0.00,,,0.00,Wunderground v.1.15,2013-09-01 11:25:00,
2013-09-01 07:30:00,72.3,71.7,29.83,South,170,0.0,0.0,98,0.00,,,0.00,Wunderground v.1.15,2013-09-01 11:30:00,
2013-09-01 07:35:00,72.5,71.9,29.83,SSE,158,0.0,2.0,98,0.00,,,0.00,Wunderground v.1.15,2013-09-01 11:35:00,
2013-09-01 07:40:00,72.8,72.2,29.83,SSE,158,0.0,0.0,98,0.00,,,0.00,Wunderground v.1.15,2013-09-01 11:40:00,
2013-09-01 07:45:00,73.2,72.3,29.83,SSW,208,0.0,2.0,97,0.00,,,0.00,Wunderground v.1.15,2013-09-01 11:45:00,
2013-09-01 07:50:00,73.7,72.8,29.83,SSE,150,1.0,1.0,97,0.00,,,0.00,Wunderground v.1.15,2013-09-01 11:50:00,
2013-09-01 07:55:00,74.2,73.0,29.83,SSW,194,1.0,3.0,96,0.00,,,0.00,Wunderground v.1.15,2013-09-01 11:55:00,
2013-09-01 08:00:00,74.9,73.4,29.83,SE,135,0.0,1.0,95,0.00,,,0.00,Wunderground v.1.15,2013-09-01 12:00:00,
2013-09-01 08:05:00,75.4,73.2,29.83,SSE,168,1.0,4.0,93,0.00,,,0.00,Wunderground v.1.15,2013-09-01 12:05:00,
2013-09-01 08:10:00,76.1,73.6,29.83,South,169,1.0,2.0,92,0.00,,,0.00,Wunderground v.1.15,2013-09-01 12:10:00,
2013-09-01 08:15:00,76.7,73.5,29.83,SSE,160,2.0,3.0,90,0.00,,,0.00,Wunderground v.1.15,2013-09-01 12:15:00,
2013-09-01 08:20:00,77.1,73.9,29.83,SE,133,2.0,3.0,90,0.00,,,0.00,Wunderground v.1.15,2013-09-01 12:20:00,
2013-09-01 08:25:00,77.4,73.6,29.83,SSE,152,2.0,3.0,88,0.00,,,0.00,Wunderground v.1.15,2013-09-01 12:25:00,
2013-09-01 08:30:00,77.3,73.5,29.83,SSE,164,0.0,3.0,88,0.00,,,0.00,Wunderground v.1.15,2013-09-01 12:30:00,
2013-09-01 08:35:00,77.0,73.2,29.83,SSE,158,3.0,3.0,88,0.00,,,0.00,Wunderground v.1.15,2013-09-01 12:35:00,
2013-09-01 08:40:00,76.8,73.0,29.84,SSE,151,1.0,2.0,88,0.00,,,0.00,Wunderground v.1.15,2013-09-01 12:40:00,
2013-09-01 08:45:00,76.7,73.2,29.84,SSE,164,1.0,3.0,89,0.00,,,0.00,Wunderground v.1.15,2013-09-01 12:45:00,
2013-09-01 08:50:00,77.3,73.8,29.84,South,173,1.0,2.0,89,0.00,,,0.00,Wunderground v.1.15,2013-09-01 12:50:00,
2013-09-01 08:55:00,77.6,73.4,29.84,SSE,168,2.0,4.0,87,0.00,,,0.00,Wunderground v.1.15,2013-09-01 12:55:00,
2013-09-01 09:00:00,77.6,73.4,29.84,SSE,164,2.0,3.0,87,0.00,,,0.00,Wunderground v.1.15,2013-09-01 13:00:00,
2013-09-01 09:05:00,77.8,73.6,29.84,SSE,165,2.0,5.0,87,0.00,,,0.00,Wunderground v.1.15,2013-09-01 13:05:00,
2013-09-01 09:10:00,78.1,73.6,29.84,West,264,2.0,3.0,86,0.00,,,0.00,Wunderground v.1.15,2013-09-01 13:10:00,
2013-09-01 09:15:00,78.2,73.3,29.84,WSW,249,2.0,4.0,85,0.00,,,0.00,Wunderground v.1.15,2013-09-01 13:15:00,
2013-09-01 09:20:00,78.4,73.5,29.84,WNW,285,1.0,2.0,85,0.00,,,0.00,Wunderground v.1.15,2013-09-01 13:20:00,
2013-09-01 09:25:00,78.4,73.2,29.84,South,186,1.0,6.0,84,0.00,,,0.00,Wunderground v.1.15,2013-09-01 13:25:00,
2013-09-01 09:30:00,79.0,73.4,29.84,WSW,245,2.0,2.0,83,0.00,,,0.00,Wunderground v.1.15,2013-09-01 13:30:00,
2013-09-01 09:35:00,79.4,73.4,29.84,SSE,166,1.0,5.0,82,0.00,,,0.00,Wunderground v.1.15,2013-09-01 13:35:00,
2013-09-01 09:40:00,80.0,73.6,29.84,SSW,203,0.0,3.0,81,0.00,,,0.00,Wunderground v.1.15,2013-09-01 13:40:00,
2013-09-01 09:45:00,80.3,73.6,29.84,South,181,4.0,4.0,80,0.00,,,0.00,Wunderground v.1.15,2013-09-01 13:45:00,
2013-09-01 09:50:00,80.6,73.5,29.84,South,176,3.0,3.0,79,0.00,,,0.00,Wunderground v.1.15,2013-09-01 13:50:00,
2013-09-01 09:55:00,80.7,73.6,29.84,WNW,295,1.0,3.0,79,0.00,,,0.00,Wunderground v.1.15,2013-09-01 13:55:00,
2013-09-01 10:00:00,81.0,73.9,29.84,ESE,115,1.0,4.0,79,0.00,,,0.00,Wunderground v.1.15,2013-09-01 14:00:00,
2013-09-01 10:05:00,81.1,74.0,29.84,SW,225,1.0,4.0,79,0.00,,,0.00,Wunderground v.1.15,2013-09-01 14:05:00,
2013-09-01 10:10:00,81.2,74.4,29.84,SW,218,1.0,3.0,80,0.00,,,0.00,Wunderground v.1.15,2013-09-01 14:10:00,
2013-09-01 10:15:00,81.7,74.5,29.84,SSE,153,2.0,3.0,79,0.00,,,0.00,Wunderground v.1.15,2013-09-01 14:15:00,
2013-09-01 10:20:00,81.5,74.4,29.84,SSW,195,1.0,4.0,79,0.00,,,0.00,Wunderground v.1.15,2013-09-01 14:20:00,
2013-09-01 10:25:00,81.6,74.5,29.84,West,263,1.0,4.0,79,0.00,,,0.00,Wunderground v.1.15,2013-09-01 14:25:00,
2013-09-01 10:30:00,81.9,74.7,29.83,WNW,287,0.0,2.0,79,0.00,,,0.00,Wunderground v.1.15,2013-09-01 14:30:00,
2013-09-01 10:35:00,82.2,75.0,29.83,West,278,2.0,4.0,79,0.00,,,0.00,Wunderground v.1.15,2013-09-01 14:35:00,
2013-09-01 10:40:00,82.4,75.2,29.83,WSW,257,0.0,3.0,79,0.00,,,0.00,Wunderground v.1.15,2013-09-01 14:40:00,
2013-09-01 10:46:00,83.0,75.4,29.83,West,264,2.0,4.0,78,0.00,,,0.00,Wunderground v.1.15,2013-09-01 14:46:00,
2013-09-01 10:51:00,83.1,75.1,29.83,SSE,165,3.0,3.0,77,0.00,,,0.00,Wunderground v.1.15,2013-09-01 14:51:00,
2013-09-01 10:56:00,83.1,75.1,29.83,SW,217,1.0,4.0,77,0.00,,,0.00,Wunderground v.1.15,2013-09-01 14:56:00,
2013-09-01 11:01:00,83.2,74.8,29.83,SSE,153,1.0,3.0,76,0.00,,,0.00,Wunderground v.1.15,2013-09-01 15:01:00,
2013-09-01 11:06:00,83.0,75.0,29.83,SSE,159,5.0,5.0,77,0.00,,,0.00,Wunderground v.1.15,2013-09-01 15:06:00,
2013-09-01 11:11:00,83.4,75.4,29.83,SSW,194,1.0,4.0,77,0.00,,,0.00,Wunderground v.1.15,2013-09-01 15:11:00,
2013-09-01 11:16:00,83.6,75.2,29.83,SSE,158,0.0,4.0,76,0.00,,,0.00,Wunderground v.1.15,2013-09-01 15:16:00,
2013-09-01 11:21:00,84.0,76.0,29.83,WNW,298,1.0,3.0,77,0.00,,,0.00,Wunderground v.1.15,2013-09-01 15:21:00,
2013-09-01 11:26:00,84.4,75.6,29.83,SSE,167,2.0,5.0,75,0.00,,,0.00,Wunderground v.1.15,2013-09-01 15:26:00,
2013-09-01 11:31:00,84.8,76.0,29.83,ESE,118,1.0,4.0,75,0.00,,,0.00,Wunderground v.1.15,2013-09-01 15:31:00,
2013-09-01 11:36:00,85.0,75.8,29.83,SSE,156,1.0,4.0,74,0.00,,,0.00,Wunderground v.1.15,2013-09-01 15:36:00,
2013-09-01 11:41:00,84.9,75.7,29.83,SSE,149,1.0,3.0,74,0.00,,,0.00,Wunderground v.1.15,2013-09-01 15:41:00,
2013-09-01 11:46:00,85.0,76.2,29.83,West,267,1.0,5.0,75,0.00,,,0.00,Wunderground v.1.15,2013-09-01 15:46:00,
2013-09-01 11:51:00,85.2,75.6,29.83,SW,236,1.0,3.0,73,0.00,,,0.00,Wunderground v.1.15,2013-09-01 15:51:00,
2013-09-01 11:56:00,85.6,75.9,29.83,South,184,0.0,5.0,73,0.00,,,0.00,Wunderground v.1.15,2013-09-01 15:56:00,
2013-09-01 12:01:00,86.0,75.9,29.83,East,86,1.0,4.0,72,0.00,,,0.00,Wunderground v.1.15,2013-09-01 16:01:00,
2013-09-01 12:06:00,86.4,75.5,29.83,SSE,156,0.0,5.0,70,0.00,,,0.00,Wunderground v.1.15,2013-09-01 16:06:00,
2013-09-01 12:11:00,86.4,75.5,29.83,SSE,150,2.0,3.0,70,0.00,,,0.00,Wunderground v.1.15,2013-09-01 16:11:00,
2013-09-01 12:16:00,86.7,74.4,29.83,SSE,162,1.0,5.0,67,0.00,,,0.00,Wunderground v.1.15,2013-09-01 16:16:00,
2013-09-01 12:21:00,86.5,74.7,29.82,West,265,2.0,5.0,68,0.00,,,0.00,Wunderground v.1.15,2013-09-01 16:21:00,
2013-09-01 12:26:00,86.4,75.0,29.82,SSE,150,2.0,5.0,69,0.00,,,0.00,Wunderground v.1.15,2013-09-01 16:26:00,
2013-09-01 12:31:00,86.9,75.1,29.82,SSE,158,3.0,4.0,68,0.00,,,0.00,Wunderground v.1.15,2013-09-01 16:31:00,
2013-09-01 12:36:00,87.2,73.5,29.82,SE,143,6.0,6.0,64,0.00,,,0.00,Wunderground v.1.15,2013-09-01 16:36:00,
2013-09-01 12:41:00,87.5,74.3,29.82,SSE,153,3.0,3.0,65,0.00,,,0.00,Wunderground v.1.15,2013-09-01 16:41:00,
2013-09-01 12:46:00,87.3,74.1,29.82,WNW,287,2.0,7.0,65,0.00,,,0.00,Wunderground v.1.15,2013-09-01 16:46:00,
2013-09-01 12:51:00,87.5,73.8,29.82,SE,126,0.0,4.0,64,0.00,,,0.00,Wunderground v.1.15,2013-09-01 16:51:00,
2013-09-01 12:56:00,88.0,75.7,29.82,South,184,0.0,4.0,67,0.00,,,0.00,Wunderground v.1.15,2013-09-01 16:56:00,
2013-09-01 13:01:00,88.3,75.0,29.81,East,100,2.0,4.0,65,0.00,,,0.00,Wunderground v.1.15,2013-09-01 17:01:00,
2013-09-01 13:06:00,88.4,75.1,29.81,SW,232,2.0,6.0,65,0.00,,,0.00,Wunderground v.1.15,2013-09-01 17:06:00,
2013-09-01 13:11:00,88.3,74.6,29.81,SSE,152,4.0,7.0,64,0.00,,,0.00,Wunderground v.1.15,2013-09-01 17:11:00,
2013-09-01 13:16:00,88.1,73.9,29.81,SSW,197,1.0,7.0,63,0.00,,,0.00,Wunderground v.1.15,2013-09-01 17:16:00,
2013-09-01 13:22:00,88.0,73.8,29.81,West,274,2.0,6.0,63,0.00,,,0.00,Wunderground v.1.15,2013-09-01 17:22:00,
2013-09-01 13:27:00,88.2,74.5,29.81,SSW,201,2.0,6.0,64,0.00,,,0.00,Wunderground v.1.15,2013-09-01 17:27:00,
2013-09-01 13:32:00,88.7,74.5,29.81,SW,215,3.0,4.0,63,0.00,,,0.00,Wunderground v.1.15,2013-09-01 17:32:00,
2013-09-01 13:37:00,88.6,74.9,29.81,SW,226,3.0,6.0,64,0.00,,,0.00,Wunderground v.1.15,2013-09-01 17:37:00,
2013-09-01 13:42:00,88.6,75.3,29.81,SE,124,1.0,6.0,65,0.00,,,0.00,Wunderground v.1.15,2013-09-01 17:42:00,
2013-09-01 13:47:00,88.6,75.3,29.81,ESE,109,2.0,6.0,65,0.00,,,0.00,Wunderground v.1.15,2013-09-01 17:47:00,
2013-09-01 13:52:00,88.7,75.0,29.80,SSE,158,1.0,3.0,64,0.00,,,0.00,Wunderground v.1.15,2013-09-01 17:52:00,
2013-09-01 13:57:00,89.1,76.7,29.80,SE,134,2.0,5.0,67,0.00,,,0.00,Wunderground v.1.15,2013-09-01 17:57:00,
2013-09-01 14:02:00,89.0,75.2,29.80,SW,216,3.0,5.0,64,0.00,,,0.00,Wunderground v.1.15,2013-09-01 18:02:00,
2013-09-01 14:07:00,88.8,76.0,29.80,WSW,249,1.0,6.0,66,0.00,,,0.00,Wunderground v.1.15,2013-09-01 18:07:00,
2013-09-01 14:12:00,88.9,75.6,29.79,East,95,2.0,6.0,65,0.00,,,0.00,Wunderground v.1.15,2013-09-01 18:12:00,
2013-09-01 14:17:00,88.8,75.0,29.80,SSE,149,2.0,6.0,64,0.00,,,0.00,Wunderground v.1.15,2013-09-01 18:17:00,
2013-09-01 14:22:00,89.0,76.2,29.80,SSW,195,1.0,5.0,66,0.00,,,0.00,Wunderground v.1.15,2013-09-01 18:22:00,
2013-09-01 14:27:00,89.0,75.2,29.79,SE,143,1.0,5.0,64,0.00,,,0.00,Wunderground v.1.15,2013-09-01 18:27:00,
2013-09-01 14:32:00,88.8,76.0,29.79,North,351,0.0,3.0,66,0.00,,,0.00,Wunderground v.1.15,2013-09-01 18:32:00,
2013-09-01 14:37:00,88.7,75.4,29.79,SE,145,0.0,4.0,65,0.00,,,0.00,Wunderground v.1.15,2013-09-01 18:37:00,
2013-09-01 14:42:00,88.8,75.0,29.79,SW,228,1.0,5.0,64,0.00,,,0.00,Wunderground v.1.15,2013-09-01 18:42:00,
2013-09-01 14:47:00,88.6,75.3,29.79,SSE,150,5.0,6.0,65,0.00,,,0.00,Wunderground v.1.15,2013-09-01 18:47:00,
2013-09-01 14:52:00,88.3,75.9,29.79,SE,133,1.0,3.0,67,0.00,,,0.00,Wunderground v.1.15,2013-09-01 18:52:00,
2013-09-01 14:57:00,88.6,75.8,29.79,West,276,3.0,5.0,66,0.00,,,0.00,Wunderground v.1.15,2013-09-01 18:57:00,
2013-09-01 15:02:00,88.5,75.7,29.79,South,170,4.0,4.0,66,0.00,,,0.00,Wunderground v.1.15,2013-09-01 19:02:00,
2013-09-01 15:07:00,88.2,75.4,29.79,South,171,4.0,5.0,66,0.00,,,0.00,Wunderground v.1.15,2013-09-01 19:07:00,
2013-09-01 15:12:00,87.9,74.7,29.79,SW,214,2.0,3.0,65,0.00,,,0.00,Wunderground v.1.15,2013-09-01 19:12:00,
2013-09-01 15:17:00,87.8,75.5,29.79,South,177,2.0,4.0,67,0.00,,,0.00,Wunderground v.1.15,2013-09-01 19:17:00,
2013-09-01 15:22:00,87.8,75.5,29.78,SW,217,3.0,5.0,67,0.00,,,0.00,Wunderground v.1.15,2013-09-01 19:22:00,
2013-09-01 15:27:00,87.5,74.7,29.78,SW,218,3.0,5.0,66,0.00,,,0.00,Wunderground v.1.15,2013-09-01 19:27:00,
2013-09-01 15:32:00,87.7,74.9,29.78,SSE,156,3.0,3.0,66,0.00,,,0.00,Wunderground v.1.15,2013-09-01 19:32:00,
2013-09-01 15:37:00,88.2,75.4,29.78,SE,134,1.0,3.0,66,0.00,,,0.00,Wunderground v.1.15,2013-09-01 19:37:00,
2013-09-01 15:42:00,87.8,74.6,29.78,SSE,154,5.0,7.0,65,0.00,,,0.00,Wunderground v.1.15,2013-09-01 19:42:00,
2013-09-01 15:47:00,87.3,75.0,29.78,SSE,158,2.0,7.0,67,0.00,,,0.00,Wunderground v.1.15,2013-09-01 19:47:00,
2013-09-01 15:52:00,87.9,76.0,29.77,South,179,3.0,4.0,68,0.00,,,0.00,Wunderground v.1.15,2013-09-01 19:52:00,
2013-09-01 15:57:00,88.5,74.8,29.77,SSE,155,2.0,6.0,64,0.00,,,0.00,Wunderground v.1.15,2013-09-01 19:57:00,
2013-09-01 16:02:00,88.5,74.8,29.78,WSW,243,1.0,5.0,64,0.00,,,0.00,Wunderground v.1.15,2013-09-01 20:02:00,
2013-09-01 16:07:00,88.2,74.9,29.78,SSE,154,4.0,5.0,65,0.00,,,0.00,Wunderground v.1.15,2013-09-01 20:07:00,
2013-09-01 16:12:00,88.3,75.5,29.77,SE,133,3.0,3.0,66,0.00,,,0.00,Wunderground v.1.15,2013-09-01 20:12:00,
2013-09-01 16:17:00,88.4,75.6,29.77,NNW,328,1.0,5.0,66,0.00,,,0.00,Wunderground v.1.15,2013-09-01 20:17:00,
2013-09-01 16:22:00,88.2,74.9,29.77,SW,226,2.0,4.0,65,0.00,,,0.00,Wunderground v.1.15,2013-09-01 20:22:00,
2013-09-01 16:27:00,87.7,74.5,29.77,West,259,1.0,4.0,65,0.00,,,0.00,Wunderground v.1.15,2013-09-01 20:27:00,
2013-09-01 16:32:00,87.2,75.3,29.77,ESE,123,1.0,3.0,68,0.00,,,0.00,Wunderground v.1.15,2013-09-01 20:32:00,
2013-09-01 16:37:00,87.5,75.6,29.77,SSE,156,5.0,6.0,68,0.00,,,0.00,Wunderground v.1.15,2013-09-01 20:37:00,
2013-09-01 16:42:00,87.5,75.2,29.77,SSE,158,2.0,4.0,67,0.00,,,0.00,Wunderground v.1.15,2013-09-01 20:42:00,
2013-09-01 16:47:00,87.7,75.8,29.77,WSW,242,0.0,4.0,68,0.00,,,0.00,Wunderground v.1.15,2013-09-01 20:47:00,
2013-09-01 16:52:00,88.3,75.9,29.77,South,172,2.0,3.0,67,0.00,,,0.00,Wunderground v.1.15,2013-09-01 20:52:00,
2013-09-01 16:57:00,88.6,75.3,29.77,South,190,3.0,4.0,65,0.00,,,0.00,Wunderground v.1.15,2013-09-01 20:57:00,
2013-09-01 17:02:00,87.8,75.5,29.76,SE,134,2.0,3.0,67,0.00,,,0.00,Wunderground v.1.15,2013-09-01 21:02:00,
2013-09-01 17:07:00,87.7,75.8,29.76,SW,231,0.0,4.0,68,0.00,,,0.00,Wunderground v.1.15,2013-09-01 21:07:00,
2013-09-01 17:12:00,88.2,75.9,29.76,SE,140,2.0,4.0,67,0.00,,,0.00,Wunderground v.1.15,2013-09-01 21:12:00,
2013-09-01 17:17:00,88.0,76.1,29.76,East,99,2.0,5.0,68,0.00,,,0.00,Wunderground v.1.15,2013-09-01 21:17:00,
2013-09-01 17:22:00,88.0,77.0,29.76,South,191,4.0,5.0,70,0.00,,,0.00,Wunderground v.1.15,2013-09-01 21:22:00,
2013-09-01 17:27:00,87.8,76.8,29.76,SE,136,4.0,5.0,70,0.00,,,0.00,Wunderground v.1.15,2013-09-01 21:27:00,
2013-09-01 17:32:00,87.5,76.9,29.76,South,187,3.0,4.0,71,0.00,,,0.00,Wunderground v.1.15,2013-09-01 21:32:00,
2013-09-01 17:37:00,87.4,76.4,29.76,South,188,1.0,5.0,70,0.00,,,0.00,Wunderground v.1.15,2013-09-01 21:37:00,
2013-09-01 17:42:00,87.3,76.7,29.76,SSE,162,2.0,4.0,71,0.00,,,0.00,Wunderground v.1.15,2013-09-01 21:42:00,
2013-09-01 17:47:00,87.1,76.5,29.76,SE,131,2.0,4.0,71,0.00,,,0.00,Wunderground v.1.15,2013-09-01 21:47:00,
2013-09-01 17:52:00,86.7,76.2,29.76,South,177,1.0,5.0,71,0.00,,,0.00,Wunderground v.1.15,2013-09-01 21:52:00,
2013-09-01 17:57:00,86.5,76.0,29.76,SE,131,3.0,6.0,71,0.00,,,0.00,Wunderground v.1.15,2013-09-01 21:57:00,
2013-09-01 18:02:00,86.3,76.2,29.76,SSE,153,2.0,5.0,72,0.00,,,0.00,Wunderground v.1.15,2013-09-01 22:02:00,
2013-09-01 18:07:00,86.3,76.2,29.76,SSE,156,1.0,5.0,72,0.00,,,0.00,Wunderground v.1.15,2013-09-01 22:07:00,
2013-09-01 18:12:00,86.3,76.6,29.76,West,266,1.0,4.0,73,0.00,,,0.00,Wunderground v.1.15,2013-09-01 22:12:00,
2013-09-01 18:17:00,86.2,76.1,29.76,SSE,153,1.0,4.0,72,0.00,,,0.00,Wunderground v.1.15,2013-09-01 22:17:00,
2013-09-01 18:22:00,85.8,76.1,29.76,South,184,1.0,5.0,73,0.00,,,0.00,Wunderground v.1.15,2013-09-01 22:22:00,
2013-09-01 18:28:00,85.6,75.9,29.76,SSE,158,1.0,5.0,73,0.00,,,0.00,Wunderground v.1.15,2013-09-01 22:28:00,
2013-09-01 18:33:00,85.5,75.9,29.76,SW,229,2.0,3.0,73,0.00,,,0.00,Wunderground v.1.15,2013-09-01 22:33:00,
2013-09-01 18:38:00,85.4,75.8,29.77,SSE,152,1.0,3.0,73,0.00,,,0.00,Wunderground v.1.15,2013-09-01 22:38:00,
2013-09-01 18:43:00,85.2,75.6,29.77,SSE,160,1.0,1.0,73,0.00,,,0.00,Wunderground v.1.15,2013-09-01 22:43:00,
2013-09-01 18:48:00,84.8,75.6,29.77,SSE,162,0.0,2.0,74,0.00,,,0.00,Wunderground v.1.15,2013-09-01 22:48:00,
2013-09-01 18:53:00,84.3,75.5,29.77,SSE,158,0.0,2.0,75,0.00,,,0.00,Wunderground v.1.15,2013-09-01 22:53:00,
2013-09-01 18:58:00,83.6,75.2,29.77,SSE,166,1.0,2.0,76,0.00,,,0.00,Wunderground v.1.15,2013-09-01 22:58:00,
2013-09-01 19:03:00,83.0,75.0,29.77,SSE,167,0.0,2.0,77,0.00,,,0.00,Wunderground v.1.15,2013-09-01 23:03:00,
2013-09-01 19:08:00,82.5,74.9,29.77,SSE,163,1.0,2.0,78,0.00,,,0.00,Wunderground v.1.15,2013-09-01 23:08:00,
2013-09-01 19:13:00,82.1,74.9,29.77,SE,144,1.0,2.0,79,0.00,,,0.00,Wunderground v.1.15,2013-09-01 23:13:00,
2013-09-01 19:18:00,81.7,74.9,29.77,SE,145,0.0,2.0,80,0.00,,,0.00,Wunderground v.1.15,2013-09-01 23:18:00,
2013-09-01 19:23:00,81.3,74.9,29.77,SSE,155,1.0,1.0,81,0.00,,,0.00,Wunderground v.1.15,2013-09-01 23:23:00,
2013-09-01 19:28:00,81.0,75.0,29.77,SSE,155,0.0,2.0,82,0.00,,,0.00,Wunderground v.1.15,2013-09-01 23:28:00,
2013-09-01 19:33:00,80.7,74.7,29.77,SSE,157,0.0,1.0,82,0.00,,,0.00,Wunderground v.1.15,2013-09-01 23:33:00,
2013-09-01 19:38:00,80.4,74.8,29.77,SSE,160,0.0,2.0,83,0.00,,,0.00,Wunderground v.1.15,2013-09-01 23:38:00,
2013-09-01 19:43:00,80.1,74.8,29.77,South,183,3.0,4.0,84,0.00,,,0.00,Wunderground v.1.15,2013-09-01 23:43:00,
2013-09-01 19:48:00,79.9,74.6,29.77,SSE,156,0.0,4.0,84,0.00,,,0.00,Wunderground v.1.15,2013-09-01 23:48:00,
2013-09-01 19:53:00,79.6,74.3,29.77,SSE,155,1.0,2.0,84,0.00,,,0.00,Wunderground v.1.15,2013-09-01 23:53:00,
2013-09-01 19:58:00,79.4,74.5,29.77,East,99,1.0,2.0,85,0.00,,,0.00,Wunderground v.1.15,2013-09-01 23:58:00,
2013-09-01 20:04:00,79.2,74.3,29.77,SSW,201,1.0,2.0,85,0.00,,,0.00,Wunderground v.1.15,2013-09-02 00:04:00,
2013-09-01 20:09:00,79.0,74.5,29.77,SE,136,1.0,3.0,86,0.00,,,0.00,Wunderground v.1.15,2013-09-02 00:09:00,
2013-09-01 20:14:00,79.0,74.5,29.78,SSE,159,1.0,4.0,86,0.00,,,0.00,Wunderground v.1.15,2013-09-02 00:14:00,
2013-09-01 20:19:00,78.8,74.3,29.78,SSE,167,0.0,4.0,86,0.00,,,0.00,Wunderground v.1.15,2013-09-02 00:19:00,
2013-09-01 20:24:00,78.6,74.4,29.78,South,176,1.0,2.0,87,0.00,,,0.00,Wunderground v.1.15,2013-09-02 00:24:00,
2013-09-01 20:29:00,78.4,74.2,29.78,South,169,1.0,2.0,87,0.00,,,0.00,Wunderground v.1.15,2013-09-02 00:29:00,
2013-09-01 20:34:00,78.2,74.4,29.78,SE,136,0.0,3.0,88,0.00,,,0.00,Wunderground v.1.15,2013-09-02 00:34:00,
2013-09-01 20:39:00,78.1,74.3,29.79,SSE,150,0.0,3.0,88,0.00,,,0.00,Wunderground v.1.15,2013-09-02 00:39:00,
2013-09-01 20:44:00,78.1,74.6,29.79,SSE,160,1.0,2.0,89,0.00,,,0.00,Wunderground v.1.15,2013-09-02 00:44:00,
2013-09-01 20:49:00,77.9,74.4,29.79,SE,145,0.0,2.0,89,0.00,,,0.00,Wunderground v.1.15,2013-09-02 00:49:00,
2013-09-01 20:54:00,77.9,74.4,29.79,SE,135,0.0,3.0,89,0.00,,,0.00,Wunderground v.1.15,2013-09-02 00:54:00,
2013-09-01 20:59:00,77.8,74.3,29.79,SSE,149,0.0,3.0,89,0.00,,,0.00,Wunderground v.1.15,2013-09-02 00:59:00,
2013-09-01 21:04:00,77.7,74.2,29.79,SSE,155,0.0,3.0,89,0.00,,,0.00,Wunderground v.1.15,2013-09-02 01:04:00,
2013-09-01 21:09:00,77.7,74.2,29.79,East,98,1.0,3.0,89,0.00,,,0.00,Wunderground v.1.15,2013-09-02 01:09:00,
2013-09-01 21:14:00,77.6,74.4,29.80,SSE,152,0.0,2.0,90,0.00,,,0.00,Wunderground v.1.15,2013-09-02 01:14:00,
2013-09-01 21:19:00,77.1,74.3,29.80,SSE,163,0.0,2.0,91,0.00,,,0.00,Wunderground v.1.15,2013-09-02 01:19:00,
2013-09-01 21:24:00,76.5,74.3,29.80,SE,131,0.0,2.0,93,0.00,,,0.00,Wunderground v.1.15,2013-09-02 01:24:00,
2013-09-01 21:29:00,75.9,74.0,29.80,South,181,3.0,4.0,94,0.00,,,0.00,Wunderground v.1.15,2013-09-02 01:29:00,
2013-09-01 21:34:00,75.6,74.1,29.80,SSE,168,0.0,2.0,95,0.00,,,0.00,Wunderground v.1.15,2013-09-02 01:34:00,
2013-09-01 21:39:00,75.3,74.4,29.80,SSE,151,1.0,2.0,97,0.00,,,0.01,Wunderground v.1.15,2013-09-02 01:39:00,
2013-09-01 21:44:00,75.1,74.2,29.80,SSE,160,3.0,3.0,97,0.00,,,0.01,Wunderground v.1.15,2013-09-02 01:44:00,
2013-09-01 21:49:00,75.0,74.1,29.80,SSE,156,1.0,3.0,97,0.00,,,0.01,Wunderground v.1.15,2013-09-02 01:49:00,
2013-09-01 21:54:00,74.9,74.3,29.79,SE,145,1.0,3.0,98,0.00,,,0.01,Wunderground v.1.15,2013-09-02 01:54:00,
2013-09-01 21:59:00,74.9,74.3,29.80,SE,141,1.0,3.0,98,0.00,,,0.01,Wunderground v.1.15,2013-09-02 01:59:00,
2013-09-01 22:04:00,74.8,74.2,29.79,SSE,160,0.0,4.0,98,0.00,,,0.01,Wunderground v.1.15,2013-09-02 02:04:00,
2013-09-01 22:09:00,74.8,74.2,29.79,South,187,0.0,4.0,98,0.00,,,0.01,Wunderground v.1.15,2013-09-02 02:09:00,
2013-09-01 22:14:00,74.8,74.2,29.79,SE,134,0.0,2.0,98,0.00,,,0.01,Wunderground v.1.15,2013-09-02 02:14:00,
2013-09-01 22:19:00,74.8,74.2,29.79,SSE,156,1.0,2.0,98,0.00,,,0.01,Wunderground v.1.15,2013-09-02 02:19:00,
2013-09-01 22:24:00,74.8,74.2,29.79,SSE,148,2.0,3.0,98,0.00,,,0.01,Wunderground v.1.15,2013-09-02 02:24:00,
2013-09-01 22:29:00,74.7,74.1,29.79,SSE,162,2.0,3.0,98,0.00,,,0.01,Wunderground v.1.15,2013-09-02 02:29:00,
2013-09-01 22:34:00,74.7,74.1,29.79,SSE,148,0.0,2.0,98,0.00,,,0.01,Wunderground v.1.15,2013-09-02 02:34:00,
2013-09-01 22:39:00,74.6,74.0,29.79,SSE,154,1.0,2.0,98,0.00,,,0.01,Wunderground v.1.15,2013-09-02 02:39:00,
2013-09-01 22:44:00,74.6,74.0,29.79,SSW,198,0.0,2.0,98,0.00,,,0.01,Wunderground v.1.15,2013-09-02 02:44:00,
2013-09-01 22:49:00,74.6,74.0,29.79,South,173,0.0,2.0,98,0.00,,,0.01,Wunderground v.1.15,2013-09-02 02:49:00,
2013-09-01 22:54:00,74.6,74.3,29.79,SSE,148,1.0,3.0,99,0.00,,,0.01,Wunderground v.1.15,2013-09-02 02:54:00,
2013-09-01 22:59:00,74.6,74.3,29.79,South,179,0.0,3.0,99,0.00,,,0.01,Wunderground v.1.15,2013-09-02 02:59:00,
2013-09-01 23:04:00,74.6,74.3,29.79,SSE,167,0.0,1.0,99,0.00,,,0.01,Wunderground v.1.15,2013-09-02 03:04:00,
2013-09-01 23:09:00,74.6,74.3,29.79,South,174,0.0,1.0,99,0.00,,,0.01,Wunderground v.1.15,2013-09-02 03:09:00,
2013-09-01 23:14:00,74.6,74.3,29.79,SSE,155,1.0,3.0,99,0.00,,,0.01,Wunderground v.1.15,2013-09-02 03:14:00,
2013-09-01 23:19:00,74.6,74.3,29.79,South,174,1.0,3.0,99,0.00,,,0.01,Wunderground v.1.15,2013-09-02 03:19:00,
2013-09-01 23:24:00,74.7,74.4,29.79,SSE,165,1.0,3.0,99,0.00,,,0.01,Wunderground v.1.15,2013-09-02 03:24:00,
2013-09-01 23:29:00,74.7,74.4,29.79,SSE,166,0.0,3.0,99,0.00,,,0.01,Wunderground v.1.15,2013-09-02 03:29:00,
2013-09-01 23:34:00,74.7,74.4,29.79,WNW,299,0.0,2.0,99,0.00,,,0.01,Wunderground v.1.15,2013-09-02 03:34:00,
2013-09-01 23:39:00,74.8,74.5,29.79,WNW,284,1.0,2.0,99,0.00,,,0.01,Wunderground v.1.15,2013-09-02 03:39:00,
2013-09-01 23:44:00,74.8,74.5,29.78,West,271,1.0,3.0,99,0.00,,,0.01,Wunderground v.1.15,2013-09-02 03:44:00,
2013-09-01 23:49:00,74.9,74.6,29.78,SSE,160,0.0,3.0,99,0.00,,,0.01,Wunderground v.1.15,2013-09-02 03:49:00,
2013-09-01 23:54:00,74.9,74.6,29.78,SE,135,0.0,3.0,99,0.00,,,0.01,Wunderground v.1.15,2013-09-02 03:54:00,
2013-09-01 23:59:00,74.9,74.6,29.78,SSE,151,1.0,3.0,99,0.00,,,0.01,Wunderground v.1.15,2013-09-02 03:59:00,